Time;durP1;ratioP1;P1;durP2;ratioP2;P2;SDS_P1;SDS_P2;PMS_P1;PMS_P2;Temp;Humidity;BMP_temperature;BMP_pressure;BME280_temperature;BME280_humidity;BME280_pressure;Samples;Min_cycle;Max_cycle;Signal;HPM_P1;HPM_P2
2021/01/18 00:00:14;;;;;;;4.82;3.33;;;;;;;4.41;59.84;100089.19;4940248;29;20110;-76
2021/01/18 00:02:40;;;;;;;2.20;2.00;;;;;;;4.41;59.59;100084.50;4940053;28;20065;-74
2021/01/18 00:05:07;;;;;;;4.47;2.75;;;;;;;4.28;58.95;100062.63;4957640;29;20070;-77
2021/01/18 00:07:52;;;;;;;3.20;2.67;;;;;;;4.40;59.40;100088.41;4940769;29;20382;-76
2021/01/18 00:10:20;;;;;;;3.90;3.40;;;;;;;4.41;61.27;100094.72;4941054;29;20043;-77
2021/01/18 00:12:54;;;;;;;3.72;2.90;;;;;;;4.36;60.54;100089.38;4940744;29;20043;-77
2021/01/18 00:15:23;;;;;;;;;;;;;;;4.24;61.22;100100.22;4941654;29;20089;-77
2021/01/18 00:17:52;;;;;;;14.05;7.72;;;;;;;4.26;61.27;100112.53;4940560;29;19914;-77
2021/01/18 00:20:20;;;;;;;12.48;7.45;;;;;;;4.33;60.86;100109.31;4958534;29;20130;-77
2021/01/18 00:22:49;;;;;;;29.13;12.55;;;;;;;4.21;61.02;100107.19;4941780;29;20497;-77
2021/01/18 00:25:23;;;;;;;7.00;4.00;;;;;;;4.55;58.15;100111.91;4939523;29;20210;-76
2021/01/18 00:27:49;;;;;;;11.27;6.20;;;;;;;4.33;60.58;100118.38;4939819;29;20027;-76
2021/01/18 00:30:20;;;;;;;14.07;6.00;;;;;;;4.19;61.52;100125.97;4957016;29;20043;-76
2021/01/18 00:32:46;;;;;;;10.27;4.90;;;;;;;4.04;61.93;100116.22;4940074;29;20078;-77
2021/01/18 00:35:14;;;;;;;10.30;4.95;;;;;;;3.99;62.76;100123.81;4940570;29;20027;-77
2021/01/18 00:37:44;;;;;;;8.13;5.25;;;;;;;4.11;62.30;100124.81;4940345;29;20370;-77
2021/01/18 00:40:17;;;;;;;8.07;4.93;;;;;;;4.02;61.89;100121.25;4940387;29;20034;-77
2021/01/18 00:42:44;;;;;;;6.03;3.33;;;;;;;4.06;61.58;100111.22;4940084;29;20031;-77
2021/01/18 00:45:12;;;;;;;5.63;4.05;;;;;;;4.03;61.70;100109.09;4940226;29;20074;-76
2021/01/18 00:47:43;;;;;;;4.85;3.20;;;;;;;4.31;59.83;100117.88;4940053;29;20027;-77
2021/01/18 00:50:11;;;;;;;9.02;3.80;;;;;;;4.49;58.74;100118.72;4939904;29;20027;-77
2021/01/18 00:52:40;;;;;;;3.95;3.53;;;;;;;4.32;60.39;100119.53;4924187;29;20056;-77
2021/01/18 00:55:06;;;;;;;7.68;5.15;;;;;;;4.24;62.98;100127.75;4940001;29;20031;-77
2021/01/18 00:57:35;;;;;;;8.38;5.50;;;;;;;4.18;63.33;100132.59;4940445;29;20081;-76
2021/01/18 01:00:00;;;;;;;5.85;4.32;;;;;;;4.27;62.33;100132.63;4939999;29;20035;-77
2021/01/18 01:02:28;;;;;;;4.10;2.88;;;;;;;4.20;62.62;100144.91;4939842;29;20028;-76
2021/01/18 01:04:54;;;;;;;12.90;7.47;;;;;;;4.29;61.69;100147.69;4939412;29;20055;-77
2021/01/18 01:07:19;;;;;;;7.28;3.97;;;;;;;4.31;61.16;100148.16;4939271;29;20065;-76
2021/01/18 01:09:45;;;;;;;8.27;4.82;;;;;;;4.20;63.49;100144.91;4939465;29;20478;-77
2021/01/18 01:12:11;;;;;;;7.28;4.40;;;;;;;3.98;64.37;100150.53;4939901;29;20381;-77
2021/01/18 01:14:36;;;;;;;4.55;4.00;;;;;;;3.93;65.16;100159.75;4939790;29;20475;-77
2021/01/18 01:17:02;;;;;;;4.90;3.42;;;;;;;3.92;65.62;100154.56;4940106;29;20027;-77
2021/01/18 01:19:27;;;;;;;5.03;3.42;;;;;;;4.04;63.66;100163.00;4939890;29;20127;-77
2021/01/18 01:21:53;;;;;;;8.85;3.25;;;;;;;3.87;64.89;100168.47;4939619;29;20389;-76
2021/01/18 01:24:21;;;;;;;4.20;3.00;;;;;;;3.90;64.61;100179.66;4940127;29;20027;-77
2021/01/18 01:26:47;;;;;;;4.00;2.92;;;;;;;3.85;64.57;100182.56;4940548;29;20414;-73
2021/01/18 01:29:13;;;;;;;3.50;3.03;;;;;;;3.70;65.42;100176.66;4940541;29;20035;-77
2021/01/18 01:31:39;;;;;;;5.95;3.50;;;;;;;3.54;65.47;100166.06;4939973;29;20455;-77
2021/01/18 01:34:04;;;;;;;4.93;3.83;;;;;;;3.64;65.65;100181.50;4939892;29;20090;-77
2021/01/18 01:36:30;;;;;;;4.22;3.80;;;;;;;3.71;66.19;100189.28;4940526;29;20031;-77
2021/01/18 01:38:56;;;;;;;4.70;3.15;;;;;;;3.63;66.79;100196.38;4943606;29;20032;-77
2021/01/18 01:41:22;;;;;;;4.60;3.90;;;;;;;3.57;66.80;100197.63;4944083;29;20027;-76
2021/01/18 01:43:47;;;;;;;3.17;2.20;;;;;;;3.62;66.82;100200.25;4943720;29;20031;-76
2021/01/18 01:46:14;;;;;;;2.72;2.10;;;;;;;3.69;66.19;100200.63;4943730;29;20037;-75
2021/01/18 01:48:41;;;;;;;3.72;2.05;;;;;;;3.87;63.54;100196.00;4943823;29;20031;-77
2021/01/18 01:51:08;;;;;;;5.60;2.47;;;;;;;3.97;64.25;100195.72;4944063;29;20383;-77
2021/01/18 01:53:35;;;;;;;3.10;2.30;;;;;;;3.98;64.70;100191.81;4943186;29;20031;-77
2021/01/18 01:56:00;;;;;;;2.50;1.77;;;;;;;4.03;64.44;100205.44;4943091;29;20031;-76
2021/01/18 01:58:27;;;;;;;2.53;2.22;;;;;;;4.10;64.60;100202.22;4943792;29;20035;-76
2021/01/18 02:00:55;;;;;;;3.03;2.70;;;;;;;4.05;64.37;100205.97;4943042;29;20035;-77
2021/01/18 02:03:28;;;;;;;4.70;3.03;;;;;;;4.05;63.39;100211.47;4942229;29;20147;-77
2021/01/18 02:05:54;;;;;;;3.22;2.00;;;;;;;3.93;64.29;100200.22;4942831;29;20486;-77
2021/01/18 02:08:22;;;;;;;2.90;2.65;;;;;;;3.86;65.66;100205.38;4942951;29;20028;-77
2021/01/18 02:10:48;;;;;;;3.03;2.42;;;;;;;3.87;66.03;100205.06;4943285;29;20032;-77
2021/01/18 02:13:34;;;;;;;2.80;2.40;;;;;;;3.75;66.14;100198.53;4943461;29;20038;-77
2021/01/18 02:16:10;;;;;;;2.35;1.98;;;;;;;3.76;66.97;100214.72;4943100;29;20069;-77
2021/01/18 02:18:55;;;;;;;2.60;2.40;;;;;;;3.80;67.43;100218.47;4942643;29;20039;-77
2021/01/18 02:21:55;;;;;;;3.20;1.98;;;;;;;3.79;67.80;100222.38;4942201;29;20028;-77
2021/01/18 02:24:38;;;;;;;3.25;2.40;;;;;;;3.76;67.44;100216.69;4943048;29;20070;-76
2021/01/18 02:27:22;;;;;;;2.47;2.03;;;;;;;3.78;67.78;100226.25;4942113;29;20050;-76
2021/01/18 02:30:11;;;;;;;2.03;1.92;;;;;;;3.68;68.07;100221.84;4942167;29;20027;-77
2021/01/18 02:32:55;;;;;;;1.88;1.70;;;;;;;3.76;68.48;100228.50;4931342;29;20031;-77
2021/01/18 02:35:50;;;;;;;3.35;1.92;;;;;;;3.66;68.17;100221.31;4942060;29;20118;-76
2021/01/18 02:38:45;;;;;;;2.10;1.92;;;;;;;3.74;68.68;100224.44;4875061;29;20184;-77
2021/01/18 02:41:34;;;;;;;3.47;1.98;;;;;;;3.54;69.13;100225.78;4942043;29;20023;-76
2021/01/18 02:44:03;;;;;;;2.33;2.13;;;;;;;3.37;69.67;100207.25;4941935;29;20031;-77
2021/01/18 02:46:30;;;;;;;2.33;2.10;;;;;;;3.42;69.24;100218.13;4942986;29;20027;-77
2021/01/18 02:49:01;;;;;;;1.90;1.80;;;;;;;3.36;69.43;100224.88;4942853;29;20031;-77
2021/01/18 02:51:28;;;;;;;1.90;1.80;;;;;;;3.30;70.10;100220.59;4943083;29;20463;-77
2021/01/18 02:54:00;;;;;;;2.95;2.05;;;;;;;3.25;70.19;100229.81;4941820;29;20030;-76
2021/01/18 02:56:29;;;;;;;45.20;22.80;;;;;;;3.24;70.31;100247.41;4942037;29;20093;-76
2021/01/18 02:58:58;;;;;;;58.95;30.13;;;;;;;3.13;70.46;100252.34;4941775;29;20039;-76
2021/01/18 03:02:02;;;;;;;85.57;43.72;;;;;;;3.07;70.55;100250.84;4941406;29;20100;-77
2021/01/18 03:04:55;;;;;;;39.90;21.88;;;;;;;2.99;70.90;100253.53;4940854;29;20533;-77
2021/01/18 03:07:43;;;;;;;23.05;13.68;;;;;;;3.05;70.80;100268.78;4941151;29;20456;-76
2021/01/18 03:10:20;;;;;;;1.60;1.50;;;;;;;3.91;66.03;100266.63;4941086;29;20035;-77
2021/01/18 03:12:59;;;;;;;2.38;1.67;;;;;;;3.79;66.17;100262.84;4940239;29;20397;-77
2021/01/18 03:15:28;;;;;;;4.35;2.95;;;;;;;3.72;66.77;100265.22;4940677;29;20043;-77
2021/01/18 03:17:59;;;;;;;3.85;2.50;;;;;;;3.68;67.66;100265.84;4941018;29;20122;-77
2021/01/18 03:20:25;;;;;;;3.45;2.50;;;;;;;3.68;68.11;100260.34;4941228;29;20075;-77
2021/01/18 03:22:51;;;;;;;4.53;2.40;;;;;;;3.60;68.31;100263.84;4941571;29;20125;-77
2021/01/18 03:25:17;;;;;;;2.97;2.67;;;;;;;3.41;69.54;100277.00;4940716;29;20087;-77
2021/01/18 03:27:57;;;;;;;2.40;1.85;;;;;;;3.33;69.81;100280.50;4941144;29;20034;-77
2021/01/18 03:30:23;;;;;;;1.98;1.77;;;;;;;3.23;70.58;100286.25;4958079;29;20031;-77
2021/01/18 03:32:51;;;;;;;3.60;2.03;;;;;;;3.21;70.51;100283.00;4941238;29;20125;-77
2021/01/18 03:35:17;;;;;;;1.77;1.48;;;;;;;3.20;70.92;100286.88;4941032;29;20028;-77
2021/01/18 03:37:44;;;;;;;1.15;1.05;;;;;;;3.13;70.66;100293.59;4940823;29;20118;-77
2021/01/18 03:40:10;;;;;;;9.82;5.60;;;;;;;3.07;71.32;100289.34;4941147;29;20035;-77
2021/01/18 03:42:38;;;;;;;19.42;12.23;;;;;;;3.05;71.33;100293.53;4941157;29;20047;-77
2021/01/18 03:45:06;;;;;;;27.83;17.38;;;;;;;3.15;71.08;100302.38;4940840;29;20094;-77
2021/01/18 03:47:33;;;;;;;28.27;16.48;;;;;;;3.05;71.35;100296.28;4940560;29;20090;-77
2021/01/18 03:50:00;;;;;;;33.58;21.95;;;;;;;3.07;71.45;100300.34;4940864;29;20498;-77
2021/01/18 03:52:25;;;;;;;44.10;30.10;;;;;;;3.07;71.36;100305.84;4941351;29;20554;-77
2021/01/18 03:54:54;;;;;;;29.23;21.83;;;;;;;3.09;70.96;100306.34;4940571;29;20122;-77
2021/01/18 03:57:19;;;;;;;15.63;12.68;;;;;;;3.00;71.31;100308.22;4940625;29;20031;-77
2021/01/18 03:59:45;;;;;;;15.80;12.50;;;;;;;2.99;71.07;100308.53;4939965;29;20035;-77
2021/01/18 04:02:13;;;;;;;19.05;17.02;;;;;;;2.97;71.36;100311.56;4940926;29;20075;-77
2021/01/18 04:04:38;;;;;;;12.73;10.70;;;;;;;3.00;70.77;100316.44;4924690;29;20051;-77
2021/01/18 04:07:08;;;;;;;11.13;9.68;;;;;;;3.05;70.54;100332.84;4922322;29;20149;-77
2021/01/18 04:09:37;;;;;;;10.15;8.88;;;;;;;3.09;70.28;100342.09;4921728;29;20074;-77
2021/01/18 04:12:06;;;;;;;16.45;13.85;;;;;;;3.02;70.56;100344.44;4921574;29;20103;-77
2021/01/18 04:14:32;;;;;;;23.98;16.20;;;;;;;2.97;70.91;100350.03;4922052;29;20491;-77
2021/01/18 04:17:00;;;;;;;33.20;23.10;;;;;;;3.04;69.45;100344.97;4921628;29;20066;-77
2021/01/18 04:19:29;;;;;;;19.15;12.20;;;;;;;3.18;69.11;100353.16;4921295;29;20035;-77
2021/01/18 04:21:54;;;;;;;15.43;9.68;;;;;;;3.14;69.28;100355.72;4921109;29;20043;-77
2021/01/18 04:24:22;;;;;;;9.73;5.20;;;;;;;3.23;69.14;100372.28;4921625;29;20031;-77
2021/01/18 04:26:48;;;;;;;9.07;6.32;;;;;;;3.29;69.32;100373.00;4921087;29;20031;-77
2021/01/18 04:29:14;;;;;;;8.90;5.40;;;;;;;3.36;69.72;100381.66;4920945;29;20047;-76
2021/01/18 04:31:41;;;;;;;5.13;3.15;;;;;;;3.29;70.12;100395.00;4921178;29;20035;-77
2021/01/18 04:34:06;;;;;;;4.85;3.63;;;;;;;3.26;70.30;100384.63;4921424;29;20027;-76
2021/01/18 04:36:39;;;;;;;3.60;2.60;;;;;;;3.25;70.36;100393.97;4921923;29;20051;-78
2021/01/18 04:39:09;;;;;;;3.42;1.48;;;;;;;3.22;70.44;100389.09;4921648;29;20068;-77
2021/01/18 04:41:45;;;;;;;4.90;2.60;;;;;;;3.15;71.23;100401.34;4921175;29;20098;-77
2021/01/18 04:44:16;;;;;;;2.75;2.22;;;;;;;3.08;71.01;100394.63;4920469;29;20028;-77
2021/01/18 04:46:46;;;;;;;11.82;8.07;;;;;;;3.08;71.12;100403.69;4920943;29;20460;-76
2021/01/18 04:49:14;;;;;;;9.07;5.00;;;;;;;3.09;71.01;100413.56;4935800;29;20491;-77
2021/01/18 04:51:48;;;;;;;8.80;6.90;;;;;;;2.97;71.33;100421.50;4920632;29;20090;-77
2021/01/18 04:54:19;;;;;;;7.38;4.80;;;;;;;2.96;70.87;100428.13;4920606;29;20467;-77
2021/01/18 04:57:10;;;;;;;8.98;6.40;;;;;;;2.99;71.00;100435.78;4920458;29;20028;-77
2021/01/18 04:59:47;;;;;;;2.97;2.42;;;;;;;2.91;70.73;100433.72;4921066;29;20024;-76
2021/01/18 05:02:18;;;;;;;2.30;1.65;;;;;;;3.13;70.25;100441.25;4921222;29;20032;-76
2021/01/18 05:04:46;;;;;;;3.45;2.65;;;;;;;3.11;69.35;100449.81;4919733;29;20099;-77
2021/01/18 05:07:36;;;;;;;2.38;2.05;;;;;;;3.15;69.72;100455.53;4920089;29;20483;-77
2021/01/18 05:10:05;;;;;;;4.57;2.95;;;;;;;3.04;69.26;100457.66;4919910;29;20039;-77
2021/01/18 05:12:32;;;;;;;3.47;2.42;;;;;;;3.07;69.89;100457.03;4923729;29;20126;-77
2021/01/18 05:15:03;;;;;;;5.18;2.95;;;;;;;2.87;70.44;100454.69;4941248;29;20038;-77
2021/01/18 05:17:49;;;;;;;2.25;1.98;;;;;;;2.86;70.99;100461.31;4924293;29;20031;-76
2021/01/18 05:20:15;;;;;;;1.83;1.38;;;;;;;2.86;70.66;100470.38;4923679;29;20035;-77
2021/01/18 05:22:43;;;;;;;1.75;1.38;;;;;;;2.97;70.39;100473.72;4924882;29;20036;-77
2021/01/18 05:25:10;;;;;;;1.20;1.10;;;;;;;2.96;69.01;100472.13;4924049;29;20115;-77
2021/01/18 05:27:58;;;;;;;1.23;1.10;;;;;;;3.00;68.08;100475.88;4923778;29;20036;-76
2021/01/18 05:30:27;;;;;;;1.20;1.10;;;;;;;3.06;67.38;100484.84;4923823;29;20032;-77
2021/01/18 05:33:01;;;;;;;1.15;1.13;;;;;;;3.12;67.22;100484.44;4923824;29;20028;-77
2021/01/18 05:35:30;;;;;;;2.22;1.58;;;;;;;3.23;66.46;100495.22;4923585;29;20383;-77
2021/01/18 05:38:03;;;;;;;1.83;1.40;;;;;;;3.18;65.57;100490.63;4923836;29;20032;-77
2021/01/18 05:40:34;;;;;;;2.90;2.40;;;;;;;3.33;63.42;100498.59;4923518;29;20032;-77
2021/01/18 05:43:02;;;;;;;2.10;1.90;;;;;;;3.45;62.69;100503.56;4923969;29;20411;-77
2021/01/18 05:45:36;;;;;;;1.48;1.33;;;;;;;3.42;61.68;100512.44;4940158;29;20024;-77
2021/01/18 05:48:04;;;;;;;1.25;1.15;;;;;;;3.53;60.53;100511.09;4923559;29;20031;-77
2021/01/18 05:50:30;;;;;;;2.38;1.85;;;;;;;3.55;60.56;100510.78;4923050;29;20111;-76
2021/01/18 05:52:57;;;;;;;1.60;1.50;;;;;;;3.60;58.73;100516.19;4922654;29;20052;-76
2021/01/18 05:55:28;;;;;;;1.35;1.25;;;;;;;3.67;57.96;100511.91;4922640;29;20032;-77
2021/01/18 05:57:57;;;;;;;1.67;1.58;;;;;;;3.68;58.24;100519.03;4922571;29;20038;-77
2021/01/18 06:00:34;;;;;;;1.48;1.38;;;;;;;3.70;57.80;100526.16;4922687;29;20087;-77
2021/01/18 06:03:11;;;;;;;1.00;1.00;;;;;;;3.66;57.54;100521.25;4922961;29;20055;-77
2021/01/18 06:05:38;;;;;;;1.60;1.50;;;;;;;3.61;57.64;100534.31;4922601;29;20046;-76
2021/01/18 06:08:18;;;;;;;2.60;1.02;;;;;;;3.71;57.48;100544.28;4923383;29;20027;-74
2021/01/18 06:10:48;;;;;;;0.90;0.90;;;;;;;3.66;56.08;100543.28;4922581;29;20038;-76
2021/01/18 06:13:24;;;;;;;1.50;1.27;;;;;;;3.79;56.17;100558.16;4922426;29;20091;-77
2021/01/18 06:16:11;;;;;;;2.65;1.55;;;;;;;3.73;56.35;100564.06;4922598;29;20079;-76
2021/01/18 06:18:40;;;;;;;4.10;1.80;;;;;;;3.66;57.03;100579.06;4906688;29;20027;-76
2021/01/18 06:21:10;;;;;;;1.67;1.52;;;;;;;3.73;55.15;100578.66;4923044;29;20146;-77
2021/01/18 06:23:37;;;;;;;2.05;1.80;;;;;;;3.66;55.68;100581.81;4907020;29;20407;-77
2021/01/18 06:26:03;;;;;;;2.50;1.60;;;;;;;3.77;54.61;100576.09;4922466;29;20027;-77
2021/01/18 06:28:29;;;;;;;1.48;1.33;;;;;;;3.74;54.68;100582.22;4922369;29;20035;-77
2021/01/18 06:30:59;;;;;;;1.33;1.23;;;;;;;3.71;54.24;100577.31;4922255;29;20035;-76
2021/01/18 06:33:44;;;;;;;2.15;1.85;;;;;;;3.87;53.79;100592.38;4922350;29;20501;-76
2021/01/18 06:36:21;;;;;;;1.83;1.55;;;;;;;4.31;50.28;100590.84;4922371;29;20435;-76
2021/01/18 06:39:05;;;;;;;3.08;1.27;;;;;;;4.64;49.80;100584.00;4922474;29;20032;-77
2021/01/18 06:41:35;;;;;;;5.55;1.90;;;;;;;4.91;48.92;100593.28;4939325;29;20030;-76
2021/01/18 06:44:02;;;;;;;4.13;1.58;;;;;;;5.07;48.64;100586.22;4921958;29;20157;-76
2021/01/18 06:46:37;;;;;;;1.75;1.45;;;;;;;5.32;47.36;100603.22;4939761;29;20039;-77
2021/01/18 06:49:09;;;;;;;5.60;1.98;;;;;;;5.55;46.85;100607.56;4922142;29;20042;-76
2021/01/18 06:51:46;;;;;;;1.85;1.50;;;;;;;5.90;46.17;100602.13;4922592;29;20433;-76
2021/01/18 06:54:20;;;;;;;0.95;0.95;;;;;;;6.07;44.96;100607.72;4923061;29;20067;-76
2021/01/18 06:57:04;;;;;;;;;;;;;;;6.15;45.07;100608.88;4922582;29;20040;-76
2021/01/18 06:59:52;;;;;;;1.87;1.70;;;;;;;6.64;44.79;100609.56;4922030;29;20001;-77
2021/01/18 07:02:20;;;;;;;1.88;1.58;;;;;;;6.91;44.63;100611.97;4922798;29;20367;-77
2021/01/18 07:04:47;;;;;;;2.63;1.52;;;;;;;7.07;43.96;100623.31;4939591;29;20055;-76
2021/01/18 07:07:30;;;;;;;2.05;1.55;;;;;;;7.26;43.51;100634.84;4942250;29;20031;-78
2021/01/18 07:10:01;;;;;;;2.13;1.52;;;;;;;7.29;43.00;100634.19;4942103;29;20039;-75
2021/01/18 07:12:31;;;;;;;3.05;2.47;;;;;;;7.39;43.18;100637.75;4925723;29;20035;-76
2021/01/18 07:15:15;;;;;;;2.83;1.85;;;;;;;7.50;42.81;100636.22;4925996;29;20094;-76
2021/01/18 07:17:44;;;;;;;2.00;1.80;;;;;;;7.41;42.08;100643.78;4941223;29;20043;-76
2021/01/18 07:20:21;;;;;;;8.80;2.25;;;;;;;7.49;42.37;100637.38;4940966;29;20036;-76
2021/01/18 07:22:55;;;;;;;3.70;2.30;;;;;;;7.71;42.28;100636.31;4940901;29;20126;-77
2021/01/18 07:25:23;;;;;;;2.70;1.70;;;;;;;7.76;41.19;100645.25;4940709;29;20110;-76
2021/01/18 07:27:56;;;;;;;2.25;2.00;;;;;;;8.13;41.42;100662.19;4941039;29;20034;-76
2021/01/18 07:30:22;;;;;;;2.38;1.92;;;;;;;8.22;41.72;100671.28;4940971;29;20035;-76
2021/01/18 07:32:48;;;;;;;1.73;1.63;;;;;;;8.43;40.98;100674.13;4940557;29;20497;-76
2021/01/18 07:35:15;;;;;;;2.42;1.90;;;;;;;8.29;40.47;100684.59;4941212;29;20074;-76
2021/01/18 07:37:41;;;;;;;3.03;1.92;;;;;;;8.21;40.05;100677.97;4941496;29;20031;-75
2021/01/18 07:40:17;;;;;;;3.25;2.03;;;;;;;8.48;39.68;100676.69;4940921;29;20529;-76
2021/01/18 07:42:43;;;;;;;2.60;2.35;;;;;;;8.61;39.33;100674.78;4941089;29;20114;-77
2021/01/18 07:45:12;;;;;;;2.63;2.30;;;;;;;8.81;39.63;100662.88;4941028;29;20065;-76
2021/01/18 07:48:04;;;;;;;2.25;1.52;;;;;;;8.37;38.62;100634.69;4940516;29;20031;-76
2021/01/18 07:50:41;;;;;;;1.85;1.67;;;;;;;8.28;38.93;100661.63;4936804;29;20399;-78
2021/01/18 07:53:14;;;;;;;3.03;2.20;;;;;;;8.53;39.16;100672.91;4940308;29;20122;-76
2021/01/18 07:55:43;;;;;;;3.70;2.17;;;;;;;8.47;39.74;100671.47;4939601;29;20028;-75
2021/01/18 07:58:17;;;;;;;2.25;2.00;;;;;;;8.45;39.65;100655.16;4939599;29;20392;-77
2021/01/18 08:00:44;;;;;;;4.05;2.50;;;;;;;8.71;38.94;100668.84;4939685;29;20031;-75
2021/01/18 08:03:10;;;;;;;7.93;2.50;;;;;;;8.78;38.76;100673.84;4939057;29;20110;-75
2021/01/18 08:05:43;;;;;;;3.55;2.67;;;;;;;9.02;38.49;100670.38;4939716;29;20039;-73
2021/01/18 08:08:19;;;;;;;4.22;2.45;;;;;;;9.11;38.14;100693.34;4939902;29;20110;-74
2021/01/18 08:11:26;;;;;;;4.38;2.10;;;;;;;8.93;37.65;100693.47;4939747;29;20036;-77
2021/01/18 08:13:59;;;;;;;8.70;2.50;;;;;;;8.69;37.41;100701.66;4881517;29;20043;-77
2021/01/18 08:16:28;;;;;;;2.47;1.93;;;;;;;8.62;38.95;100716.06;4881452;29;20028;-76
2021/01/18 08:18:55;;;;;;;8.25;5.03;;;;;;;8.85;38.57;100713.78;4912330;29;20451;-77
2021/01/18 08:21:33;;;;;;;5.78;3.25;;;;;;;8.90;37.55;100724.69;4939123;29;20069;-75
2021/01/18 08:24:08;;;;;;;4.00;1.67;;;;;;;8.92;36.55;100729.91;4939044;29;20121;-74
2021/01/18 08:27:02;;;;;;;2.50;1.75;;;;;;;8.97;36.70;100731.66;4939108;29;20094;-76
2021/01/18 08:29:37;;;;;;;;;;;;;;;9.16;36.83;100734.75;4939302;29;20081;-76
2021/01/18 08:32:20;;;;;;;;;;;;;;;9.13;36.21;100735.44;4940178;29;20242;-76
2021/01/18 08:34:54;;;;;;;1.48;1.38;;;;;;;9.29;35.54;100732.84;4938750;29;19915;-76
2021/01/18 08:37:24;;;;;;;2.10;1.90;;;;;;;9.19;35.14;100739.63;4939530;29;20122;-76
2021/01/18 08:39:55;;;;;;;4.05;1.70;;;;;;;9.26;35.58;100736.28;4923711;29;20169;-77
2021/01/18 08:42:27;;;;;;;2.35;1.98;;;;;;;9.36;35.95;100745.03;4938950;29;20178;-76
2021/01/18 08:44:57;;;;;;;5.18;1.42;;;;;;;9.14;34.83;100762.03;4939151;29;20039;-76
2021/01/18 08:47:42;;;;;;;2.38;1.92;;;;;;;9.58;35.30;100749.38;4938703;29;20183;-76
2021/01/18 08:50:35;;;;;;;2.42;1.77;;;;;;;9.23;35.89;100760.00;4939135;29;20557;-76
2021/01/18 08:53:24;;;;;;;1.42;1.27;;;;;;;8.95;34.71;100761.69;4930641;29;20509;-76
2021/01/18 08:56:06;;;;;;;2.55;1.55;;;;;;;9.42;34.68;100759.50;4939171;29;20134;-75
2021/01/18 08:58:44;;;;;;;2.75;1.73;;;;;;;9.32;35.64;100769.09;4939259;29;20069;-76
2021/01/18 09:01:09;;;;;;;4.95;2.30;;;;;;;9.49;35.67;100776.44;4938884;29;20029;-75
2021/01/18 09:03:35;;;;;;;2.65;1.88;;;;;;;9.13;36.15;100768.75;4931501;29;20487;-75
2021/01/18 09:06:01;;;;;;;2.28;1.98;;;;;;;9.24;35.73;100781.06;4919470;29;20147;-75
2021/01/18 09:08:31;;;;;;;3.90;2.35;;;;;;;9.60;35.83;100793.50;4920223;29;20032;-75
2021/01/18 09:11:02;;;;;;;5.28;2.05;;;;;;;9.54;35.13;100794.88;4919874;29;20094;-75
2021/01/18 09:13:33;;;;;;;2.75;1.33;;;;;;;9.28;35.02;100798.69;4920850;29;20551;-75
2021/01/18 09:16:03;;;;;;;3.90;1.45;;;;;;;9.55;35.19;100802.06;4919542;29;20123;-75
2021/01/18 09:18:29;;;;;;;7.65;3.13;;;;;;;9.88;34.71;100788.97;4919519;29;20063;-75
2021/01/18 09:20:59;;;;;;;3.20;1.42;;;;;;;9.85;35.08;100797.97;4920034;29;20074;-75
2021/01/18 09:23:29;;;;;;;2.15;1.40;;;;;;;10.01;34.41;100794.53;4919564;29;20032;-76
2021/01/18 09:26:13;;;;;;;3.90;1.70;;;;;;;9.97;34.60;100797.22;4919393;29;20038;-75
2021/01/18 09:28:52;;;;;;;3.97;1.92;;;;;;;9.92;34.83;100786.31;4919489;29;20039;-75
2021/01/18 09:31:23;;;;;;;2.17;1.48;;;;;;;9.79;35.16;100791.00;4936769;29;20043;-75
2021/01/18 09:33:51;;;;;;;3.30;1.63;;;;;;;9.38;34.92;100789.13;4920915;29;20032;-75
2021/01/18 09:36:19;;;;;;;1.42;1.15;;;;;;;9.60;35.68;100793.50;4919905;29;20035;-75
2021/01/18 09:38:47;;;;;;;1.83;1.33;;;;;;;9.81;35.78;100788.72;4920708;29;20493;-75
2021/01/18 09:41:16;;;;;;;1.65;1.40;;;;;;;9.69;35.48;100774.75;4905457;29;20047;-77
2021/01/18 09:43:43;;;;;;;4.05;2.05;;;;;;;9.67;34.71;100797.34;4921031;29;20032;-76
2021/01/18 09:46:09;;;;;;;2.97;1.70;;;;;;;9.93;35.03;100796.28;4937545;29;20044;-76
2021/01/18 09:48:35;;;;;;;3.65;2.17;;;;;;;9.65;34.58;100794.09;4903845;29;20431;-76
2021/01/18 09:51:06;;;;;;;2.15;1.67;;;;;;;9.44;33.73;100796.09;4918928;29;20036;-75
2021/01/18 09:53:33;;;;;;;2.10;1.90;;;;;;;8.78;34.75;100810.59;4918771;29;20036;-75
2021/01/18 09:56:01;;;;;;;2.35;1.70;;;;;;;9.49;34.67;100820.09;4918888;29;20032;-75
2021/01/18 09:58:33;;;;;;;2.78;2.05;;;;;;;9.66;36.10;100814.38;4921700;29;20364;-76
2021/01/18 10:01:00;;;;;;;3.10;1.70;;;;;;;9.58;36.22;100802.16;4923456;29;20032;-76
2021/01/18 10:03:35;;;;;;;2.45;2.15;;;;;;;9.50;36.01;100819.75;4922427;29;20051;-74
2021/01/18 10:06:12;;;;;;;3.20;1.90;;;;;;;9.82;36.52;100826.47;4923244;29;20383;-75
2021/01/18 10:08:41;;;;;;;2.10;1.90;;;;;;;9.70;36.38;100826.44;4923233;29;20070;-76
2021/01/18 10:11:08;;;;;;;2.08;1.38;;;;;;;9.51;35.66;100823.31;4922633;29;20039;-76
2021/01/18 10:13:36;;;;;;;3.97;1.90;;;;;;;9.64;36.71;100823.06;4922250;29;20032;-75
2021/01/18 10:16:10;;;;;;;5.57;2.72;;;;;;;9.84;36.37;100826.13;4922643;29;20036;-76
2021/01/18 10:18:41;;;;;;;;;;;;;;;9.29;36.85;100811.41;4923609;29;20066;-75
2021/01/18 10:21:09;;;;;;;6.35;3.50;;;;;;;9.26;36.91;100795.41;4922350;29;19910;-74
2021/01/18 10:23:48;;;;;;;3.38;2.88;;;;;;;9.16;36.86;100804.16;4922065;29;20028;-74
2021/01/18 10:26:23;;;;;;;2.78;2.30;;;;;;;9.42;36.75;100807.53;4922082;29;20399;-75
2021/01/18 10:29:09;;;;;;;2.10;1.95;;;;;;;8.93;36.44;100821.13;4922236;29;20028;-74
2021/01/18 10:31:38;;;;;;;4.43;2.58;;;;;;;9.40;37.25;100803.47;4921770;29;20394;-75
2021/01/18 10:34:11;;;;;;;3.15;2.83;;;;;;;8.97;37.08;100809.38;4921861;29;20028;-75
2021/01/18 10:36:38;;;;;;;3.78;2.38;;;;;;;8.78;38.17;100796.75;4921774;29;20028;-75
2021/01/18 10:39:04;;;;;;;6.47;2.40;;;;;;;9.13;37.43;100804.84;4921835;29;20478;-75
2021/01/18 10:41:34;;;;;;;2.97;2.22;;;;;;;9.47;38.00;100794.59;4922152;29;20058;-75
2021/01/18 10:44:05;;;;;;;5.32;3.20;;;;;;;9.72;37.29;100796.31;4921876;29;20028;-76
2021/01/18 10:46:32;;;;;;;4.05;2.45;;;;;;;9.78;37.78;100800.50;4939346;29;20032;-75
2021/01/18 10:48:59;;;;;;;2.90;1.77;;;;;;;9.29;36.57;100794.75;4938700;29;20034;-75
2021/01/18 10:51:31;;;;;;;3.08;2.40;;;;;;;9.77;36.22;100792.53;4905717;29;20039;-76
2021/01/18 10:54:01;;;;;;;3.53;3.03;;;;;;;9.88;36.28;100780.63;4921665;29;20032;-75
2021/01/18 10:56:34;;;;;;;6.55;4.78;;;;;;;9.17;37.64;100795.50;4921809;29;20035;-76
2021/01/18 10:59:01;;;;;;;4.28;2.17;;;;;;;9.15;37.55;100785.88;4921680;29;20035;-75
2021/01/18 11:01:30;;;;;;;3.20;2.60;;;;;;;9.40;36.43;100787.63;4921407;29;20507;-75
2021/01/18 11:04:05;;;;;;;3.67;1.90;;;;;;;8.89;37.23;100783.28;4921156;29;20119;-75
2021/01/18 11:06:35;;;;;;;4.00;2.47;;;;;;;9.40;36.25;100776.53;4938365;29;20038;-75
2021/01/18 11:09:04;;;;;;;4.18;3.00;;;;;;;9.45;36.77;100772.72;4920587;29;20534;-75
2021/01/18 11:11:29;;;;;;;4.47;3.58;;;;;;;9.45;36.22;100776.31;4921320;29;20115;-75
2021/01/18 11:14:04;;;;;;;3.20;2.25;;;;;;;9.65;35.89;100784.97;4921785;29;20146;-75
2021/01/18 11:16:30;;;;;;;3.83;1.75;;;;;;;8.71;37.41;100774.28;4921556;29;20035;-74
2021/01/18 11:19:04;;;;;;;4.32;2.13;;;;;;;8.59;36.86;100793.59;4921299;29;20043;-75
2021/01/18 11:21:30;;;;;;;2.15;1.95;;;;;;;8.63;37.42;100769.59;4921290;29;20032;-74
2021/01/18 11:23:56;;;;;;;2.90;2.60;;;;;;;8.70;37.63;100767.09;4921669;29;20050;-73
2021/01/18 11:26:26;;;;;;;3.35;2.22;;;;;;;8.63;36.72;100767.63;4921074;29;20031;-74
2021/01/18 11:28:52;;;;;;;4.40;2.08;;;;;;;8.76;37.09;100757.44;4938154;29;20034;-73
2021/01/18 11:31:18;;;;;;;2.22;2.03;;;;;;;8.66;36.98;100766.13;4921078;29;20394;-75
2021/01/18 11:33:45;;;;;;;1.73;1.63;;;;;;;8.56;36.86;100777.63;4920889;29;20040;-73
2021/01/18 11:36:11;;;;;;;1.70;1.60;;;;;;;8.84;37.49;100776.00;4920876;29;20023;-74
2021/01/18 11:38:38;;;;;;;1.90;1.67;;;;;;;8.63;37.16;100777.94;4905644;29;20036;-74
2021/01/18 11:41:05;;;;;;;4.28;2.17;;;;;;;8.79;37.37;100776.19;4920818;29;20034;-73
2021/01/18 11:43:33;;;;;;;3.20;2.35;;;;;;;9.18;37.44;100776.88;4921077;29;20042;-74
2021/01/18 11:45:59;;;;;;;4.00;2.03;;;;;;;8.32;36.72;100731.88;4905143;29;20099;-74
2021/01/18 11:48:25;;;;;;;2.72;2.53;;;;;;;8.61;38.15;100774.66;4921094;29;20095;-75
2021/01/18 11:50:51;;;;;;;2.72;2.30;;;;;;;8.78;38.36;100777.31;4920918;29;20031;-74
2021/01/18 11:53:18;;;;;;;5.15;3.20;;;;;;;8.83;38.19;100774.34;4920709;29;20039;-74